createdAt,value
2023-01-19T00:02:05.750Z,2.53
2023-01-19T00:04:35.991Z,2.83
2023-01-19T00:07:08.899Z,2.20
2023-01-19T00:09:46.393Z,1.87
2023-01-19T00:12:16.197Z,2.70
2023-01-19T00:14:46.375Z,2.10
2023-01-19T00:17:16.665Z,2.20
2023-01-19T00:19:47.089Z,2.50
2023-01-19T00:22:19.369Z,2.70
2023-01-19T00:24:49.401Z,1.90
2023-01-19T00:27:19.614Z,2.53
2023-01-19T00:29:50.211Z,2.53
2023-01-19T00:32:20.621Z,2.00
2023-01-19T00:34:52.657Z,2.10
2023-01-19T00:37:24.374Z,2.40
2023-01-19T00:39:54.889Z,2.03
2023-01-19T00:42:44.676Z,2.70
2023-01-19T00:45:17.172Z,2.43
2023-01-19T00:47:48.492Z,2.73
2023-01-19T00:50:19.241Z,2.87
2023-01-19T00:52:51.162Z,4.10
2023-01-19T00:55:21.242Z,4.30
2023-01-19T00:57:51.829Z,4.03
2023-01-19T01:00:22.997Z,4.20
2023-01-19T01:02:54.411Z,4.30
2023-01-19T01:05:24.436Z,4.33
2023-01-19T01:07:56.467Z,4.57
2023-01-19T01:10:28.124Z,4.93
2023-01-19T01:12:59.587Z,4.13
2023-01-19T01:15:53.160Z,4.03
2023-01-19T01:18:23.927Z,4.90
2023-01-19T01:20:56.088Z,4.50
2023-01-19T01:23:28.161Z,6.50
2023-01-19T01:25:57.778Z,4.60
2023-01-19T01:28:28.408Z,5.23
2023-01-19T01:30:59.263Z,4.80
2023-01-19T01:33:41.302Z,4.87
2023-01-19T01:36:12.345Z,4.80
2023-01-19T01:38:43.785Z,5.20
2023-01-19T01:41:14.042Z,8.00
2023-01-19T01:43:50.635Z,5.03
2023-01-19T01:46:21.480Z,4.97
2023-01-19T01:48:56.201Z,4.50
2023-01-19T01:51:29.959Z,4.77
2023-01-19T01:54:12.122Z,5.00
2023-01-19T01:56:43.800Z,5.53
2023-01-19T01:59:26.600Z,6.00
2023-01-19T02:02:16.438Z,5.27
2023-01-19T02:04:50.166Z,5.70
2023-01-19T02:07:42.597Z,5.40
2023-01-19T02:10:33.083Z,5.03
2023-01-19T02:13:22.494Z,4.63
2023-01-19T02:15:56.783Z,4.70
2023-01-19T02:18:30.014Z,4.30
2023-01-19T02:21:09.121Z,4.50
2023-01-19T02:23:45.473Z,4.77
2023-01-19T02:26:18.213Z,3.70
2023-01-19T02:28:52.341Z,4.50
2023-01-19T02:31:22.484Z,3.57
2023-01-19T02:33:52.891Z,4.83
2023-01-19T02:36:26.791Z,3.70
2023-01-19T02:38:59.984Z,4.10
2023-01-19T02:41:34.595Z,4.10
2023-01-19T02:44:06.697Z,4.47
2023-01-19T02:46:36.830Z,3.90
2023-01-19T02:49:08.756Z,5.83
2023-01-19T02:51:38.803Z,4.37
2023-01-19T02:54:22.847Z,4.30
2023-01-19T02:57:35.041Z,4.00
2023-01-19T03:00:14.930Z,5.10
2023-01-19T03:02:54.905Z,4.80
2023-01-19T03:05:47.744Z,5.03
2023-01-19T03:08:23.769Z,4.53
2023-01-19T03:10:59.386Z,4.60
2023-01-19T03:13:35.566Z,5.23
2023-01-19T03:16:11.883Z,5.00
2023-01-19T03:18:44.096Z,3.80
2023-01-19T03:21:16.244Z,4.57
2023-01-19T03:23:48.257Z,3.80
2023-01-19T03:26:23.165Z,4.07
2023-01-19T03:28:55.289Z,3.67
2023-01-19T03:31:27.740Z,4.20
2023-01-19T03:34:00.122Z,3.80
2023-01-19T03:36:35.404Z,4.30
2023-01-19T03:39:06.761Z,3.53
2023-01-19T03:41:39.270Z,3.73
2023-01-19T03:44:10.027Z,3.90
2023-01-19T03:46:41.018Z,3.67
2023-01-19T03:49:10.995Z,4.47
2023-01-19T03:51:41.410Z,3.70
2023-01-19T03:54:13.000Z,4.00
2023-01-19T03:56:45.747Z,3.60
2023-01-19T03:59:17.934Z,4.03
2023-01-19T04:01:48.769Z,3.20
2023-01-19T04:04:19.864Z,2.80
2023-01-19T04:06:52.293Z,3.13
2023-01-19T04:09:25.083Z,2.50
2023-01-19T04:11:57.371Z,2.70
2023-01-19T04:14:27.298Z,3.10
2023-01-19T04:16:56.872Z,3.03
2023-01-19T04:19:26.977Z,3.60
2023-01-19T04:21:58.191Z,2.47
2023-01-19T04:24:28.927Z,2.47
2023-01-19T04:27:00.344Z,2.30
2023-01-19T04:29:31.378Z,2.30
2023-01-19T04:32:01.603Z,2.20
2023-01-19T04:34:31.509Z,1.87
2023-01-19T04:37:02.533Z,2.00
2023-01-19T04:39:33.962Z,2.80
2023-01-19T04:42:06.829Z,2.87
2023-01-19T04:44:37.411Z,2.50
2023-01-19T04:47:10.503Z,2.20
2023-01-19T04:49:41.462Z,2.13
2023-01-19T04:52:12.084Z,2.30
2023-01-19T04:54:42.441Z,3.00
2023-01-19T04:57:15.033Z,2.70
2023-01-19T04:59:45.614Z,2.40
2023-01-19T05:02:16.343Z,2.50
2023-01-19T05:04:47.024Z,1.60
2023-01-19T05:07:19.544Z,2.50
2023-01-19T05:09:52.849Z,2.47
2023-01-19T05:12:24.067Z,3.20
2023-01-19T05:14:54.842Z,2.23
2023-01-19T05:17:26.213Z,2.00
2023-01-19T05:19:56.200Z,2.33
2023-01-19T05:22:26.759Z,2.40
2023-01-19T05:24:58.594Z,2.50
2023-01-19T05:27:31.508Z,2.23
2023-01-19T05:30:01.961Z,2.27
2023-01-19T05:32:33.734Z,2.43
2023-01-19T05:35:03.558Z,2.57
2023-01-19T05:37:34.155Z,2.57
2023-01-19T05:40:04.595Z,2.50
2023-01-19T05:42:36.686Z,2.97
2023-01-19T05:45:07.839Z,2.17
2023-01-19T05:47:38.785Z,1.97
2023-01-19T05:50:18.632Z,2.67
2023-01-19T05:52:53.541Z,2.43
2023-01-19T05:55:24.065Z,2.53
2023-01-19T05:57:56.199Z,1.97
2023-01-19T06:00:28.247Z,2.40
2023-01-19T06:02:59.350Z,2.43
2023-01-19T06:05:29.898Z,2.27
2023-01-19T06:07:59.695Z,2.73
2023-01-19T06:10:30.059Z,1.73
2023-01-19T06:13:02.395Z,2.40
2023-01-19T06:15:33.043Z,1.80
2023-01-19T06:18:04.427Z,2.23
2023-01-19T06:20:35.001Z,1.90
2023-01-19T06:23:06.294Z,2.07
2023-01-19T06:25:36.523Z,1.90
2023-01-19T06:28:08.353Z,2.50
2023-01-19T06:30:38.524Z,2.30
2023-01-19T06:33:08.657Z,2.30
2023-01-19T06:35:38.949Z,2.53
2023-01-19T06:38:09.411Z,2.03
2023-01-19T06:40:39.699Z,1.70
2023-01-19T06:43:11.738Z,2.10
2023-01-19T06:45:45.141Z,1.90
2023-01-19T06:48:15.439Z,1.50
2023-01-19T06:50:49.817Z,1.73
2023-01-19T06:53:22.879Z,1.93
2023-01-19T06:55:53.984Z,2.33
2023-01-19T06:58:26.744Z,1.50
2023-01-19T07:00:56.762Z,1.90
2023-01-19T07:03:26.673Z,2.37
2023-01-19T07:05:57.433Z,1.80
2023-01-19T07:08:28.623Z,1.80
2023-01-19T07:11:24.816Z,1.50
2023-01-19T07:13:56.673Z,1.93
2023-01-19T07:16:27.311Z,1.70
2023-01-19T07:18:58.032Z,1.73
2023-01-19T07:21:29.353Z,2.53
2023-01-19T07:23:59.653Z,2.20
2023-01-19T07:26:31.399Z,1.80
2023-01-19T07:29:03.147Z,2.17
2023-01-19T07:31:33.945Z,1.50
2023-01-19T07:34:04.339Z,1.50
2023-01-19T07:36:34.389Z,1.50
2023-01-19T07:39:05.359Z,1.57
2023-01-19T07:41:36.605Z,1.90
2023-01-19T07:44:08.902Z,1.80
2023-01-19T07:46:39.351Z,1.53
2023-01-19T07:49:10.285Z,1.57
2023-01-19T07:51:40.808Z,1.33
2023-01-19T07:54:11.320Z,1.80
2023-01-19T07:56:42.044Z,1.27
2023-01-19T07:59:15.009Z,1.70
2023-01-19T08:01:45.987Z,1.50
2023-01-19T08:04:16.571Z,1.60
2023-01-19T08:06:47.775Z,1.97
2023-01-19T08:09:19.487Z,1.57
2023-01-19T08:11:49.875Z,2.03
2023-01-19T08:14:22.266Z,1.20
2023-01-19T08:16:52.104Z,1.70
2023-01-19T08:19:22.721Z,1.17
2023-01-19T08:21:52.948Z,1.33
2023-01-19T08:24:26.515Z,1.40
2023-01-19T08:27:01.836Z,1.73
2023-01-19T08:29:34.408Z,1.40
2023-01-19T08:32:05.549Z,1.93
2023-01-19T08:34:36.816Z,1.53
2023-01-19T08:37:06.673Z,1.73
2023-01-19T08:39:36.845Z,1.80
2023-01-19T08:42:07.332Z,2.20
2023-01-19T08:44:46.791Z,2.37
2023-01-19T08:47:27.244Z,1.57
2023-01-19T08:49:57.708Z,1.70
2023-01-19T08:52:29.943Z,1.50
2023-01-19T08:55:01.391Z,1.80
2023-01-19T08:57:31.755Z,1.57
2023-01-19T09:00:04.639Z,1.43
2023-01-19T09:02:36.193Z,1.23
2023-01-19T09:05:08.398Z,1.40
2023-01-19T09:07:38.835Z,1.40
2023-01-19T09:10:11.082Z,1.63
2023-01-19T09:12:41.803Z,2.00
2023-01-19T09:15:16.005Z,1.73
2023-01-19T09:17:46.192Z,1.87
2023-01-19T09:20:16.903Z,3.00
2023-01-19T09:22:47.841Z,1.93
2023-01-19T09:25:17.716Z,2.03
2023-01-19T09:27:47.866Z,2.20
2023-01-19T09:30:21.050Z,1.83
2023-01-19T09:32:51.832Z,1.90
2023-01-19T09:35:21.720Z,2.50
2023-01-19T09:37:52.124Z,1.23
2023-01-19T09:40:23.450Z,1.87
2023-01-19T09:43:00.178Z,2.10
2023-01-19T09:45:37.131Z,1.93
2023-01-19T09:48:12.340Z,1.93
2023-01-19T09:50:47.399Z,2.50
2023-01-19T09:53:23.923Z,1.30
2023-01-19T09:55:54.720Z,1.83
2023-01-19T09:58:26.078Z,1.80
2023-01-19T10:01:00.748Z,2.50
2023-01-19T10:03:31.779Z,1.17
2023-01-19T10:06:04.168Z,2.00
2023-01-19T10:08:41.086Z,1.60
2023-01-19T10:11:23.223Z,1.63
2023-01-19T10:13:54.488Z,1.60
2023-01-19T10:16:32.223Z,1.63
2023-01-19T10:19:05.125Z,2.20
2023-01-19T10:21:39.409Z,1.80
2023-01-19T10:24:18.327Z,2.70
2023-01-19T10:26:51.951Z,2.20
2023-01-19T10:29:26.360Z,2.43
2023-01-19T10:32:07.117Z,2.60
2023-01-19T10:34:38.088Z,2.50
2023-01-19T10:37:19.216Z,2.47
2023-01-19T10:39:56.178Z,2.43
2023-01-19T10:42:28.774Z,1.87
2023-01-19T10:44:58.965Z,2.50
2023-01-19T10:47:35.762Z,2.13
2023-01-19T10:50:24.854Z,2.13
2023-01-19T10:52:55.752Z,1.67
2023-01-19T10:55:30.589Z,1.87
2023-01-19T10:58:02.374Z,1.93
2023-01-19T11:00:38.556Z,1.57
2023-01-19T11:03:25.614Z,2.40
2023-01-19T11:05:55.715Z,2.20
2023-01-19T11:08:30.540Z,2.50
2023-01-19T11:11:04.893Z,1.60
2023-01-19T11:13:36.234Z,1.70
2023-01-19T11:16:11.580Z,1.90
2023-01-19T11:18:45.711Z,1.97
2023-01-19T11:21:17.834Z,2.53
2023-01-19T11:23:51.670Z,1.53
2023-01-19T11:26:30.243Z,1.77
2023-01-19T11:29:01.400Z,2.10
2023-01-19T11:31:35.610Z,1.63
2023-01-19T11:34:23.598Z,1.87
2023-01-19T11:37:00.709Z,1.37
2023-01-19T11:39:33.369Z,1.67
2023-01-19T11:42:05.308Z,1.70
2023-01-19T11:44:37.505Z,2.10
2023-01-19T11:47:13.577Z,1.70
2023-01-19T11:49:48.375Z,1.40
2023-01-19T11:52:23.713Z,1.70
2023-01-19T11:54:58.004Z,1.57
2023-01-19T11:57:29.250Z,1.63
2023-01-19T12:00:03.870Z,1.40
2023-01-19T12:02:47.239Z,1.20
2023-01-19T12:05:22.631Z,1.57
2023-01-19T12:07:55.140Z,1.40
2023-01-19T12:10:29.404Z,1.53
2023-01-19T12:13:00.342Z,1.70
2023-01-19T12:15:35.128Z,1.77
2023-01-19T12:18:07.149Z,1.00
2023-01-19T12:20:41.320Z,1.40
2023-01-19T12:23:20.401Z,1.40
2023-01-19T12:26:00.956Z,1.60
2023-01-19T12:28:34.311Z,1.37
2023-01-19T12:31:05.372Z,1.80
2023-01-19T12:33:38.020Z,1.57
2023-01-19T12:39:07.947Z,1.57
2023-01-19T12:41:39.849Z,1.97
2023-01-19T12:44:28.203Z,2.63
2023-01-19T12:47:03.697Z,2.60
2023-01-19T12:49:37.572Z,1.90
2023-01-19T12:52:22.748Z,2.23
2023-01-19T12:55:04.246Z,2.00
2023-01-19T12:57:37.215Z,1.70
2023-01-19T13:00:12.909Z,1.77
2023-01-19T13:02:47.588Z,2.10
2023-01-19T13:05:40.960Z,1.33
2023-01-19T13:08:35.932Z,2.10
2023-01-19T13:11:24.319Z,1.50
2023-01-19T13:14:31.744Z,1.23
2023-01-19T13:17:08.247Z,1.60
2023-01-19T13:20:06.167Z,2.00
2023-01-19T13:23:21.208Z,1.90
2023-01-19T13:26:01.907Z,1.30
2023-01-19T13:28:53.042Z,1.40
2023-01-19T13:31:23.608Z,1.63
2023-01-19T13:33:55.049Z,1.23
2023-01-19T13:36:32.204Z,1.53
2023-01-19T13:39:07.478Z,1.17
2023-01-19T13:41:40.224Z,1.30
2023-01-19T13:44:15.832Z,1.43
2023-01-19T13:46:46.877Z,2.00
2023-01-19T13:49:21.003Z,2.30
2023-01-19T13:52:06.867Z,1.30
2023-01-19T13:54:37.185Z,1.20
2023-01-19T13:57:07.268Z,2.23
2023-01-19T13:59:38.738Z,2.50
2023-01-19T14:02:14.369Z,3.10
2023-01-19T14:04:44.985Z,2.30
2023-01-19T14:07:23.766Z,2.90
2023-01-19T14:10:04.934Z,2.87
2023-01-19T14:12:39.053Z,2.50
2023-01-19T14:15:16.006Z,3.20
2023-01-19T14:17:50.006Z,4.10
2023-01-19T14:20:30.869Z,3.60
2023-01-19T14:23:00.604Z,3.30
2023-01-19T14:25:32.995Z,3.60
2023-01-19T14:28:28.362Z,4.20
2023-01-19T14:31:03.029Z,4.20
2023-01-19T14:33:43.908Z,5.10
2023-01-19T14:36:27.320Z,3.80
2023-01-19T14:39:00.702Z,4.20
2023-01-19T14:41:35.743Z,4.20
2023-01-19T14:44:11.873Z,4.10
2023-01-19T14:46:48.417Z,4.80
2023-01-19T14:49:24.315Z,3.80
2023-01-19T14:51:56.309Z,4.40
2023-01-19T14:54:32.828Z,4.30
2023-01-19T14:57:02.992Z,3.00
2023-01-19T14:59:34.029Z,4.33
2023-01-19T15:02:05.490Z,4.27
2023-01-19T15:04:35.520Z,3.97
2023-01-19T15:07:05.552Z,4.07
2023-01-19T15:09:35.285Z,3.87
2023-01-19T15:12:04.833Z,4.50
2023-01-19T15:14:34.820Z,3.60
2023-01-19T15:17:07.779Z,4.17
2023-01-19T15:19:37.509Z,3.90
2023-01-19T15:22:15.391Z,4.50
2023-01-19T15:24:45.982Z,5.20
2023-01-19T15:27:16.872Z,5.57
2023-01-19T15:29:47.932Z,5.27
2023-01-19T15:32:20.525Z,5.00
2023-01-19T15:34:50.975Z,5.00
2023-01-19T15:37:20.772Z,5.20
2023-01-19T15:39:50.632Z,5.00
2023-01-19T15:42:20.756Z,5.40
2023-01-19T15:44:50.132Z,4.60
2023-01-19T15:47:22.005Z,3.53
2023-01-19T15:49:51.814Z,5.20
2023-01-19T15:52:21.652Z,5.60
2023-01-19T15:54:51.062Z,5.00
2023-01-19T15:57:22.238Z,4.50
2023-01-19T15:59:52.200Z,4.93
2023-01-19T16:02:23.611Z,4.77
2023-01-19T16:04:53.163Z,4.70
2023-01-19T16:07:23.390Z,5.37
2023-01-19T16:09:54.204Z,5.10
2023-01-19T16:12:24.469Z,6.77
2023-01-19T16:14:54.217Z,5.10
2023-01-19T16:17:25.833Z,5.50
2023-01-19T16:19:56.099Z,6.10
2023-01-19T16:22:26.797Z,6.23
2023-01-19T16:24:58.477Z,7.43
2023-01-19T16:27:29.269Z,6.27
2023-01-19T16:30:05.131Z,7.30
2023-01-19T16:32:37.069Z,7.00
2023-01-19T16:35:08.347Z,7.10
2023-01-19T16:37:39.976Z,7.80
2023-01-19T16:40:11.404Z,8.07
2023-01-19T16:42:42.537Z,8.83
2023-01-19T16:45:12.346Z,7.90
2023-01-19T16:47:47.263Z,10.13
2023-01-19T16:50:17.703Z,8.40
2023-01-19T16:52:50.824Z,7.73
2023-01-19T16:55:20.908Z,6.90
2023-01-19T16:57:50.608Z,9.50
2023-01-19T17:00:21.697Z,8.63
2023-01-19T17:02:54.123Z,9.27
2023-01-19T17:05:24.560Z,9.47
2023-01-19T17:07:55.629Z,8.50
2023-01-19T17:10:25.859Z,9.37
2023-01-19T17:12:56.200Z,8.90
2023-01-19T17:15:26.512Z,9.13
2023-01-19T17:17:59.553Z,8.57
2023-01-19T17:20:29.943Z,8.43
2023-01-19T17:23:00.663Z,9.63
2023-01-19T17:25:30.821Z,8.47
2023-01-19T17:28:01.918Z,9.83
2023-01-19T17:30:31.754Z,9.50
2023-01-19T17:33:03.248Z,9.50
2023-01-19T17:35:35.128Z,8.53
2023-01-19T17:38:05.300Z,8.10
2023-01-19T17:40:35.988Z,7.20
2023-01-19T17:43:05.954Z,7.33
2023-01-19T17:45:37.528Z,7.50
2023-01-19T17:48:10.794Z,8.63
2023-01-19T17:50:40.386Z,7.20
2023-01-19T17:53:10.904Z,7.20
2023-01-19T17:55:41.599Z,6.50
2023-01-19T17:58:11.628Z,8.07
2023-01-19T18:00:41.668Z,6.63
2023-01-19T18:03:13.170Z,7.80
2023-01-19T18:05:43.451Z,8.33
2023-01-19T18:08:13.540Z,9.13
2023-01-19T18:10:44.192Z,7.60
2023-01-19T18:13:14.072Z,9.57
2023-01-19T18:15:44.617Z,9.20
2023-01-19T18:18:16.170Z,9.43
2023-01-19T18:20:46.345Z,8.23
2023-01-19T18:23:16.692Z,10.63
2023-01-19T18:25:46.884Z,10.80
2023-01-19T18:28:16.958Z,9.40
2023-01-19T18:30:47.334Z,7.73
2023-01-19T18:33:19.103Z,8.37
2023-01-19T18:35:49.091Z,7.30
2023-01-19T18:38:19.360Z,8.47
2023-01-19T18:40:48.933Z,7.43
2023-01-19T18:43:19.365Z,9.00
2023-01-19T18:45:50.170Z,12.57
2023-01-19T18:48:21.698Z,14.17
2023-01-19T18:50:51.700Z,16.00
2023-01-19T18:53:21.916Z,14.80
2023-01-19T18:55:53.400Z,12.00
2023-01-19T18:58:24.057Z,11.70
2023-01-19T19:00:54.371Z,12.03
2023-01-19T19:03:26.066Z,11.93
2023-01-19T19:05:56.111Z,12.97
2023-01-19T19:08:26.833Z,15.97
2023-01-19T19:10:57.799Z,16.80
2023-01-19T19:13:28.361Z,18.70
2023-01-19T19:16:06.413Z,17.50
2023-01-19T19:18:39.685Z,17.33
2023-01-19T19:21:11.561Z,15.83
2023-01-19T19:23:41.375Z,14.20
2023-01-19T19:26:13.853Z,14.00
2023-01-19T19:28:44.061Z,12.90
2023-01-19T19:31:16.986Z,12.20
2023-01-19T19:33:51.633Z,13.83
2023-01-19T19:36:23.761Z,14.07
2023-01-19T19:38:53.949Z,14.10
2023-01-19T19:41:27.352Z,13.03
2023-01-19T19:43:58.333Z,13.33
2023-01-19T19:46:29.749Z,12.83
2023-01-19T19:49:01.669Z,12.23
2023-01-19T19:51:32.364Z,11.90
2023-01-19T19:54:02.899Z,12.20
2023-01-19T19:56:36.416Z,12.13
2023-01-19T19:59:06.637Z,10.90
2023-01-19T20:01:37.010Z,10.53
2023-01-19T20:04:12.412Z,11.90
2023-01-19T20:06:46.348Z,11.83
2023-01-19T20:09:16.228Z,11.20
2023-01-19T20:11:49.386Z,11.93
2023-01-19T20:14:19.608Z,11.40
2023-01-19T20:16:49.955Z,12.87
2023-01-19T20:19:22.067Z,12.90
2023-01-19T20:21:52.418Z,14.40
2023-01-19T20:24:22.966Z,14.23
2023-01-19T20:26:55.293Z,13.13
2023-01-19T20:29:25.843Z,14.10
2023-01-19T20:31:57.837Z,14.30
2023-01-19T20:34:33.330Z,13.53
2023-01-19T20:37:05.268Z,14.60
2023-01-19T20:39:37.346Z,14.83
2023-01-19T20:42:11.298Z,13.43
2023-01-19T20:44:42.002Z,16.77
2023-01-19T20:47:12.788Z,14.90
2023-01-19T20:49:44.646Z,14.13
2023-01-19T20:52:15.579Z,14.60
2023-01-19T20:54:45.628Z,13.47
2023-01-19T20:57:15.753Z,13.90
2023-01-19T20:59:46.847Z,12.77
2023-01-19T21:02:17.962Z,13.37
2023-01-19T21:04:51.074Z,15.07
2023-01-19T21:07:21.095Z,14.43
2023-01-19T21:09:51.104Z,14.30
2023-01-19T21:12:23.444Z,16.90
2023-01-19T21:14:54.128Z,14.70
2023-01-19T21:17:24.614Z,14.07
2023-01-19T21:19:55.617Z,12.80
2023-01-19T21:22:25.984Z,15.20
2023-01-19T21:24:56.774Z,14.20
2023-01-19T21:27:27.099Z,16.40
2023-01-19T21:29:58.708Z,14.53
2023-01-19T21:32:28.728Z,15.53
2023-01-19T21:35:00.566Z,15.20
2023-01-19T21:37:32.746Z,15.60
2023-01-19T21:40:02.818Z,13.67
2023-01-19T21:42:33.203Z,14.27
2023-01-19T21:45:03.201Z,12.67
2023-01-19T21:47:33.048Z,14.30
2023-01-19T21:50:04.673Z,14.80
2023-01-19T21:52:34.827Z,14.13
2023-01-19T21:55:05.212Z,14.20
2023-01-19T21:57:35.834Z,16.00
2023-01-19T22:00:07.437Z,14.40
2023-01-19T22:02:39.452Z,14.73
2023-01-19T22:05:14.156Z,17.27
2023-01-19T22:07:44.687Z,16.20
2023-01-19T22:10:15.394Z,16.03
2023-01-19T22:12:45.553Z,18.27
2023-01-19T22:15:15.487Z,19.97
2023-01-19T22:17:45.919Z,17.37
2023-01-19T22:20:18.823Z,19.90
2023-01-19T22:22:48.898Z,18.90
2023-01-19T22:25:22.280Z,18.80
2023-01-19T22:27:52.568Z,18.70
2023-01-19T22:30:23.343Z,19.40
2023-01-19T22:32:53.519Z,19.57
2023-01-19T22:35:25.131Z,19.60
2023-01-19T22:37:55.301Z,19.30
2023-01-19T22:40:25.608Z,21.20
2023-01-19T22:42:56.107Z,18.37
2023-01-19T22:45:26.277Z,17.43
2023-01-19T22:47:56.404Z,20.50
2023-01-19T22:50:29.308Z,21.60
2023-01-19T22:52:59.449Z,20.27
2023-01-19T22:55:32.579Z,19.13
2023-01-19T22:58:02.373Z,17.17
2023-01-19T23:00:32.298Z,18.73
2023-01-19T23:03:03.049Z,21.83
2023-01-19T23:05:37.779Z,18.20
2023-01-19T23:08:08.653Z,16.80
2023-01-19T23:10:41.852Z,15.77
2023-01-19T23:13:11.858Z,16.47
2023-01-19T23:15:42.061Z,15.73
2023-01-19T23:18:12.408Z,15.40
2023-01-19T23:20:43.880Z,14.33
2023-01-19T23:23:13.665Z,16.20
2023-01-19T23:25:44.308Z,14.10
2023-01-19T23:28:14.214Z,14.60
2023-01-19T23:30:44.578Z,13.57
2023-01-19T23:33:16.035Z,15.07
2023-01-19T23:35:48.419Z,15.40
2023-01-19T23:38:20.499Z,16.30
2023-01-19T23:40:52.136Z,14.87
2023-01-19T23:43:22.502Z,15.57
2023-01-19T23:45:53.618Z,13.23
2023-01-19T23:48:24.382Z,13.80
2023-01-19T23:50:56.121Z,13.67
2023-01-19T23:53:26.493Z,14.17
2023-01-19T23:55:57.144Z,12.77
2023-01-19T23:58:27.350Z,13.60
